CYPR/YPR METAR and TAF weather

Enter ICAO airport designator
Station Type Date Time Source
CYPR METAR 2018/07/21 11:00 UTC NOAA

CYPR 211100Z AUTO 13003KT 120V200 7SM OVC008 12/12 A3024 RMK SLP243


Station Type Date Time Source
CYPR Decoded METAR 2018/07/21 11:00 UTC NOAA

Prince Rupert, B. C., Canada (CYPR) 54-18N 130-26W 34M
Jul 21, 2018 - 07:00 AM EDT / 2018.07.21 1100 UTC
Wind: from the SE (130 degrees) at 3 MPH (3 KT) (direction variable):0
Visibility: 7 mile(s):0
Sky conditions: overcast
Temperature: 53 F (12 C)
Dew Point: 53 F (12 C)
Relative Humidity: 100%
Pressure (altimeter): 30.24 in. Hg (1024 hPa)
ob: CYPR 211100Z AUTO 13003KT 120V200 7SM OVC008 12/12 A3024 RMK SLP243
cycle: 11

Station Type Date Time Source
CYPR TAF 2018/07/21 07:42 UTC NOAA

TAF CYPR 210639Z 2107/2119 VRB03KT P6SM FEW005 OVC012
TEMPO 2107/2114 2SM BR BKN005 OVC012
RMK FCST BASED ON AUTO OBS. NXT FCST BY 211300Z


Example: see airport list